Time,TemperatureF,DewpointF,PressureIn,WindDirection,WindDirectionDegrees,WindSpeedMPH,WindSpeedGustMPH,Humidity,HourlyPrecipIn,Conditions,Clouds,dailyrainin,SoftwareType,DateUTC
2013-03-06 00:00:00,31.8,26.9,30.06,NE,45,1.0,12.0,82,0.00,,,0.01,Wunderground v.1.13,2013-03-06 05:00:00,
2013-03-06 00:30:00,31.6,27.0,30.06,NE,43,2.0,12.0,83,0.00,,,0.01,Wunderground v.1.13,2013-03-06 05:30:00,
2013-03-06 01:00:00,31.8,27.5,30.06,NE,43,2.0,12.0,84,0.00,,,0.00,Wunderground v.1.13,2013-03-06 06:00:00,
2013-03-06 01:30:00,31.8,27.5,30.06,NE,42,4.0,4.0,84,0.00,,,0.00,Wunderground v.1.13,2013-03-06 06:30:00,
2013-03-06 02:00:00,32.4,28.1,30.06,NNE,29,3.0,3.0,84,0.00,,,0.00,Wunderground v.1.13,2013-03-06 07:00:00,
2013-03-06 02:30:00,32.4,28.1,30.06,NE,50,2.0,12.0,84,0.00,,,0.00,Wunderground v.1.13,2013-03-06 07:30:00,
2013-03-06 03:00:00,32.1,28.1,30.06,NE,44,3.0,3.0,85,0.00,,,0.00,Wunderground v.1.13,2013-03-06 08:00:00,
2013-03-06 03:30:00,31.8,28.4,30.05,NE,39,3.0,12.0,87,0.00,,,0.00,Wunderground v.1.13,2013-03-06 08:30:00,
2013-03-06 04:00:00,32.4,29.2,30.06,ENE,63,3.0,12.0,88,0.00,,,0.00,Wunderground v.1.13,2013-03-06 09:00:00,
2013-03-06 04:30:00,32.5,29.6,30.06,NNE,29,5.0,12.0,89,0.00,,,0.00,Wunderground v.1.13,2013-03-06 09:30:00,
2013-03-06 05:00:00,33.1,30.2,30.06,NE,36,3.0,12.0,89,0.00,,,0.00,Wunderground v.1.13,2013-03-06 10:00:00,
2013-03-06 05:30:00,33.1,30.2,30.08,East,81,3.0,3.0,89,0.00,,,0.00,Wunderground v.1.13,2013-03-06 10:30:00,
2013-03-06 06:00:00,33.2,30.0,30.08,NE,53,2.0,2.0,88,0.00,,,0.00,Wunderground v.1.13,2013-03-06 11:00:00,
2013-03-06 06:30:00,33.4,30.2,30.09,NE,51,4.0,4.0,88,0.00,,,0.00,Wunderground v.1.13,2013-03-06 11:30:00,
2013-03-06 07:00:00,33.5,30.0,30.09,NNE,32,4.0,12.0,87,0.00,,,0.00,Wunderground v.1.13,2013-03-06 12:00:00,
2013-03-06 07:30:00,33.5,29.8,30.10,NE,36,4.0,12.0,86,0.00,,,0.00,Wunderground v.1.13,2013-03-06 12:30:00,
2013-03-06 08:00:00,34.0,30.0,30.11,ENE,61,4.0,12.0,85,0.00,,,0.00,Wunderground v.1.13,2013-03-06 13:00:00,
2013-03-06 08:30:00,34.3,30.0,30.11,NE,34,5.0,5.0,84,0.00,,,0.00,Wunderground v.1.13,2013-03-06 13:30:00,
2013-03-06 09:00:00,34.7,29.8,30.12,NNE,22,6.0,12.0,82,0.00,,,0.00,Wunderground v.1.13,2013-03-06 14:00:00,
2013-03-06 09:30:00,35.3,30.1,30.12,NNE,32,3.0,12.0,81,0.00,,,0.00,Wunderground v.1.13,2013-03-06 14:30:00,
2013-03-06 10:00:00,35.8,30.2,30.12,NNE,33,5.0,12.0,80,0.00,,,0.00,Wunderground v.1.13,2013-03-06 15:00:00,
2013-03-06 10:30:00,37.9,30.7,30.12,NNE,32,4.0,4.0,75,0.00,,,0.00,Wunderground v.1.13,2013-03-06 15:30:00,
2013-03-06 11:00:00,38.6,30.4,30.12,NE,42,8.0,8.0,72,0.00,,,0.00,Wunderground v.1.13,2013-03-06 16:00:00,
2013-03-06 11:30:00,40.2,30.1,30.12,NE,49,10.0,10.0,67,0.00,,,0.00,Wunderground v.1.13,2013-03-06 16:30:00,
2013-03-06 12:00:00,40.1,30.0,30.12,NE,43,10.0,10.0,67,0.00,,,0.00,Wunderground v.1.13,2013-03-06 17:00:00,
2013-03-06 12:30:00,40.5,29.7,30.12,NNE,26,9.0,9.0,65,0.00,,,0.00,Wunderground v.1.13,2013-03-06 17:30:00,
2013-03-06 13:00:00,40.2,29.7,30.11,NE,37,6.0,12.0,66,0.00,,,0.00,Wunderground v.1.13,2013-03-06 18:00:00,
2013-03-06 13:30:00,40.3,29.5,30.11,NE,53,8.0,12.0,65,0.00,,,0.00,Wunderground v.1.13,2013-03-06 18:30:00,
2013-03-06 14:00:00,39.6,29.5,30.11,NNE,13,10.0,12.0,67,0.00,,,0.00,Wunderground v.1.13,2013-03-06 19:00:00,
2013-03-06 14:30:00,38.9,29.2,30.11,NNE,18,11.0,11.0,68,0.00,,,0.00,Wunderground v.1.13,2013-03-06 19:30:00,
2013-03-06 15:00:00,39.2,29.5,30.12,NNE,17,7.0,12.0,68,0.00,,,0.00,Wunderground v.1.13,2013-03-06 20:00:00,
2013-03-06 15:30:00,38.6,28.9,30.12,North,9,5.0,12.0,68,0.00,,,0.00,Wunderground v.1.13,2013-03-06 20:30:00,
2013-03-06 16:00:00,38.8,28.8,30.13,NNE,24,6.0,6.0,67,0.00,,,0.00,Wunderground v.1.13,2013-03-06 21:00:00,
2013-03-06 16:30:00,38.3,28.7,30.12,NE,53,9.0,9.0,68,0.00,,,0.00,Wunderground v.1.13,2013-03-06 21:30:00,
2013-03-06 17:00:00,37.8,28.5,30.13,ENE,67,7.0,7.0,69,0.00,,,0.00,Wunderground v.1.13,2013-03-06 22:00:00,
2013-03-06 17:30:00,37.2,28.7,30.14,NE,41,8.0,12.0,71,0.00,,,0.00,Wunderground v.1.13,2013-03-06 22:30:00,
2013-03-06 18:00:00,36.9,28.4,30.14,NE,34,6.0,12.0,71,0.00,,,0.00,Wunderground v.1.13,2013-03-06 23:00:00,
2013-03-06 18:30:00,36.8,27.9,30.15,NE,35,7.0,7.0,70,0.00,,,0.00,Wunderground v.1.13,2013-03-06 23:30:00,
2013-03-06 19:00:00,36.5,28.0,30.15,ENE,57,6.0,6.0,71,0.00,,,0.00,Wunderground v.1.13,2013-03-07 00:00:00,
2013-03-06 19:30:00,36.2,27.7,30.16,NNE,13,6.0,12.0,71,0.00,,,0.00,Wunderground v.1.13,2013-03-07 00:30:00,
2013-03-06 20:00:00,35.9,27.1,30.16,NNE,30,6.0,6.0,70,0.00,,,0.00,Wunderground v.1.13,2013-03-07 01:00:00,
2013-03-06 20:30:00,35.6,27.5,30.16,NE,44,4.0,12.0,72,0.00,,,0.00,Wunderground v.1.13,2013-03-07 01:30:00,
2013-03-06 21:00:00,35.3,27.5,30.16,North,5,5.0,12.0,73,0.00,,,0.00,Wunderground v.1.13,2013-03-07 02:00:00,
2013-03-06 21:30:00,35.2,27.4,30.16,NNE,22,5.0,5.0,73,0.00,,,0.00,Wunderground v.1.13,2013-03-07 02:30:00,
2013-03-06 22:00:00,35.0,27.2,30.15,NNE,25,4.0,12.0,73,0.00,,,0.00,Wunderground v.1.13,2013-03-07 03:00:00,
2013-03-06 22:30:00,35.0,27.2,30.15,NNE,31,5.0,5.0,73,0.00,,,0.00,Wunderground v.1.13,2013-03-07 03:30:00,
2013-03-06 23:00:00,34.7,27.3,30.14,NNE,27,4.0,4.0,74,0.00,,,0.00,Wunderground v.1.13,2013-03-07 04:00:00,
2013-03-06 23:30:00,34.4,27.3,30.14,NE,55,4.0,4.0,75,0.00,,,0.00,Wunderground v.1.13,2013-03-07 04:30:00,